sensor_id;sensor_type;location;lat;lon;timestamp;pressure;altitude;pressure_sealevel;temperature;humidity
57668;BME280;43499;52.366;12.912;2023-06-22T00:00:51;101526.09;;;20.96;85.23
57668;BME280;43499;52.366;12.912;2023-06-22T00:01:52;101528.84;;;20.98;84.92
57668;BME280;43499;52.366;12.912;2023-06-22T00:02:53;101534.25;;;21.00;84.90
57668;BME280;43499;52.366;12.912;2023-06-22T00:03:54;101537.09;;;21.03;84.67
57668;BME280;43499;52.366;12.912;2023-06-22T00:04:56;101533.66;;;21.05;85.02
57668;BME280;43499;52.366;12.912;2023-06-22T00:05:57;101533.66;;;21.05;84.77
57668;BME280;43499;52.366;12.912;2023-06-22T00:06:58;101535.38;;;21.03;84.78
57668;BME280;43499;52.366;12.912;2023-06-22T00:08:03;101533.28;;;20.98;84.93
57668;BME280;43499;52.366;12.912;2023-06-22T00:09:05;101523.19;;;20.92;84.49
57668;BME280;43499;52.366;12.912;2023-06-22T00:10:07;101532.34;;;20.97;84.40
57668;BME280;43499;52.366;12.912;2023-06-22T00:11:08;101524.88;;;20.90;83.78
57668;BME280;43499;52.366;12.912;2023-06-22T00:12:09;101531.75;;;21.03;83.96
57668;BME280;43499;52.366;12.912;2023-06-22T00:13:11;101532.75;;;21.05;83.64
57668;BME280;43499;52.366;12.912;2023-06-22T00:14:13;101515.41;;;20.96;83.66
57668;BME280;43499;52.366;12.912;2023-06-22T00:15:14;101522.97;;;21.05;83.42
57668;BME280;43499;52.366;12.912;2023-06-22T00:16:15;101539.41;;;21.13;83.23
57668;BME280;43499;52.366;12.912;2023-06-22T00:17:16;101531.31;;;21.11;83.36
57668;BME280;43499;52.366;12.912;2023-06-22T00:18:17;101523.84;;;21.04;82.90
57668;BME280;43499;52.366;12.912;2023-06-22T00:19:18;101512.50;;;20.92;82.74
57668;BME280;43499;52.366;12.912;2023-06-22T00:20:20;101538.03;;;21.03;82.31
57668;BME280;43499;52.366;12.912;2023-06-22T00:21:21;101542.38;;;21.01;82.22
57668;BME280;43499;52.366;12.912;2023-06-22T00:22:23;101544.94;;;21.00;82.28
57668;BME280;43499;52.366;12.912;2023-06-22T00:23:29;101537.88;;;21.00;81.52
57668;BME280;43499;52.366;12.912;2023-06-22T00:24:34;101524.94;;;20.91;81.50
57668;BME280;43499;52.366;12.912;2023-06-22T00:25:37;101525.88;;;20.92;80.77
57668;BME280;43499;52.366;12.912;2023-06-22T00:26:38;101539.91;;;20.88;80.73
57668;BME280;43499;52.366;12.912;2023-06-22T00:27:43;101546.56;;;20.96;80.32
57668;BME280;43499;52.366;12.912;2023-06-22T00:28:44;101549.34;;;20.98;80.26
57668;BME280;43499;52.366;12.912;2023-06-22T00:29:45;101542.03;;;20.95;80.34
57668;BME280;43499;52.366;12.912;2023-06-22T00:30:46;101551.16;;;20.99;80.34
57668;BME280;43499;52.366;12.912;2023-06-22T00:31:47;101526.59;;;20.89;79.89
57668;BME280;43499;52.366;12.912;2023-06-22T00:32:49;101534.97;;;20.95;79.96
57668;BME280;43499;52.366;12.912;2023-06-22T00:33:50;101540.38;;;20.97;79.52
57668;BME280;43499;52.366;12.912;2023-06-22T00:34:51;101530.28;;;20.91;79.41
57668;BME280;43499;52.366;12.912;2023-06-22T00:35:52;101539.47;;;20.96;79.11
57668;BME280;43499;52.366;12.912;2023-06-22T00:36:54;101538.47;;;20.94;78.27
57668;BME280;43499;52.366;12.912;2023-06-22T00:37:59;101540.13;;;20.92;78.39
57668;BME280;43499;52.366;12.912;2023-06-22T00:39:05;101536.56;;;20.92;78.35
57668;BME280;43499;52.366;12.912;2023-06-22T00:40:09;101541.81;;;20.90;77.86
57668;BME280;43499;52.366;12.912;2023-06-22T00:41:12;101542.75;;;20.91;77.72
57668;BME280;43499;52.366;12.912;2023-06-22T00:42:14;101554.94;;;20.86;77.79
57668;BME280;43499;52.366;12.912;2023-06-22T00:43:15;101554.16;;;20.88;77.94
57668;BME280;43499;52.366;12.912;2023-06-22T00:44:16;101563.13;;;20.89;77.62
57668;BME280;43499;52.366;12.912;2023-06-22T00:45:17;101556.94;;;20.90;77.80
57668;BME280;43499;52.366;12.912;2023-06-22T00:46:18;101561.59;;;20.94;78.29
57668;BME280;43499;52.366;12.912;2023-06-22T00:47:19;101555.03;;;20.87;78.44
57668;BME280;43499;52.366;12.912;2023-06-22T00:48:20;101519.09;;;20.65;79.62
57668;BME280;43499;52.366;12.912;2023-06-22T00:49:22;101560.88;;;20.80;80.33
57668;BME280;43499;52.366;12.912;2023-06-22T00:50:26;101554.19;;;20.72;79.60
57668;BME280;43499;52.366;12.912;2023-06-22T00:51:27;101556.50;;;20.65;80.44
57668;BME280;43499;52.366;12.912;2023-06-22T00:52:28;101565.78;;;20.72;80.87
57668;BME280;43499;52.366;12.912;2023-06-22T00:53:31;101558.44;;;20.68;80.92
57668;BME280;43499;52.366;12.912;2023-06-22T00:54:36;101563.09;;;20.72;80.88
57668;BME280;43499;52.366;12.912;2023-06-22T00:55:44;101559.19;;;20.65;81.17
57668;BME280;43499;52.366;12.912;2023-06-22T00:56:46;101569.88;;;20.65;81.58
57668;BME280;43499;52.366;12.912;2023-06-22T00:57:47;101567.13;;;20.64;81.79
57668;BME280;43499;52.366;12.912;2023-06-22T00:58:49;101562.31;;;20.57;81.81
57668;BME280;43499;52.366;12.912;2023-06-22T00:59:54;101563.72;;;20.50;82.14
57668;BME280;43499;52.366;12.912;2023-06-22T01:00:55;101568.88;;;20.47;82.89
57668;BME280;43499;52.366;12.912;2023-06-22T01:01:56;101551.72;;;20.42;82.74
57668;BME280;43499;52.366;12.912;2023-06-22T01:02:57;101558.38;;;20.50;82.45
57668;BME280;43499;52.366;12.912;2023-06-22T01:03:59;101519.91;;;20.30;82.16
57668;BME280;43499;52.366;12.912;2023-06-22T01:05:00;101546.09;;;20.37;82.19
57668;BME280;43499;52.366;12.912;2023-06-22T01:06:08;101568.22;;;20.51;82.38
57668;BME280;43499;52.366;12.912;2023-06-22T01:07:39;101562.88;;;20.51;82.26
57668;BME280;43499;52.366;12.912;2023-06-22T01:08:49;101563.72;;;20.50;82.49
57668;BME280;43499;52.366;12.912;2023-06-22T01:10:10;101558.44;;;20.52;82.69
57668;BME280;43499;52.366;12.912;2023-06-22T01:11:23;101553.94;;;20.50;82.04
57668;BME280;43499;52.366;12.912;2023-06-22T01:12:27;101532.00;;;20.40;81.51
57668;BME280;43499;52.366;12.912;2023-06-22T01:13:45;101556.53;;;20.49;81.44
57668;BME280;43499;52.366;12.912;2023-06-22T01:15:03;101554.94;;;20.53;81.37
57668;BME280;43499;52.366;12.912;2023-06-22T01:16:27;101548.59;;;20.50;81.43
57668;BME280;43499;52.366;12.912;2023-06-22T01:17:29;101560.22;;;20.51;81.56
57668;BME280;43499;52.366;12.912;2023-06-22T01:18:32;101551.19;;;20.49;81.51
57668;BME280;43499;52.366;12.912;2023-06-22T01:19:50;101536.34;;;20.38;81.86
57668;BME280;43499;52.366;12.912;2023-06-22T01:20:57;101558.03;;;20.44;82.43
57668;BME280;43499;52.366;12.912;2023-06-22T01:22:00;101547.69;;;20.33;82.87
57668;BME280;43499;52.366;12.912;2023-06-22T01:23:26;101560.81;;;20.45;83.03
57668;BME280;43499;52.366;12.912;2023-06-22T01:27:20;101562.03;;;20.35;83.37
57668;BME280;43499;52.366;12.912;2023-06-22T01:29:31;101547.63;;;20.32;82.83
57668;BME280;43499;52.366;12.912;2023-06-22T01:30:34;101561.47;;;20.41;83.07
57668;BME280;43499;52.366;12.912;2023-06-22T01:31:38;101557.72;;;20.38;83.57
57668;BME280;43499;52.366;12.912;2023-06-22T01:32:40;101566.63;;;20.38;83.43
57668;BME280;43499;52.366;12.912;2023-06-22T01:33:43;101558.38;;;20.33;83.83
57668;BME280;43499;52.366;12.912;2023-06-22T01:34:48;101565.38;;;20.31;84.18
57668;BME280;43499;52.366;12.912;2023-06-22T01:35:49;101568.16;;;20.33;84.05
57668;BME280;43499;52.366;12.912;2023-06-22T01:36:52;101556.22;;;20.26;84.07
57668;BME280;43499;52.366;12.912;2023-06-22T01:37:53;101524.84;;;20.06;84.31
57668;BME280;43499;52.366;12.912;2023-06-22T01:38:56;101554.50;;;20.12;84.17
57668;BME280;43499;52.366;12.912;2023-06-22T01:39:58;101537.06;;;20.02;84.42
57668;BME280;43499;52.366;12.912;2023-06-22T01:41:01;101560.94;;;20.15;84.72
57668;BME280;43499;52.366;12.912;2023-06-22T01:42:03;101574.53;;;20.20;84.66
57668;BME280;43499;52.366;12.912;2023-06-22T01:43:06;101571.28;;;20.26;84.60
57668;BME280;43499;52.366;12.912;2023-06-22T01:44:10;101569.81;;;20.31;84.21
57668;BME280;43499;52.366;12.912;2023-06-22T01:45:12;101569.81;;;20.31;84.34
57668;BME280;43499;52.366;12.912;2023-06-22T01:46:13;101572.41;;;20.29;84.40
57668;BME280;43499;52.366;12.912;2023-06-22T01:47:15;101569.88;;;20.32;84.21
57668;BME280;43499;52.366;12.912;2023-06-22T01:48:19;101565.28;;;20.30;84.26
57668;BME280;43499;52.366;12.912;2023-06-22T01:49:20;101577.47;;;20.25;84.40
57668;BME280;43499;52.366;12.912;2023-06-22T01:50:21;101558.78;;;20.08;85.15
57668;BME280;43499;52.366;12.912;2023-06-22T01:51:24;101579.81;;;20.18;84.76
57668;BME280;43499;52.366;12.912;2023-06-22T01:52:25;101581.06;;;20.25;84.46
57668;BME280;43499;52.366;12.912;2023-06-22T01:53:26;101581.97;;;20.26;84.54
57668;BME280;43499;52.366;12.912;2023-06-22T01:54:27;101584.50;;;20.23;84.63
57668;BME280;43499;52.366;12.912;2023-06-22T01:55:28;101586.47;;;20.27;84.33
57668;BME280;43499;52.366;12.912;2023-06-22T01:56:29;101564.88;;;20.22;84.14
57668;BME280;43499;52.366;12.912;2023-06-22T01:57:31;101568.47;;;20.23;84.03
57668;BME280;43499;52.366;12.912;2023-06-22T01:58:33;101574.91;;;20.26;84.00
57668;BME280;43499;52.366;12.912;2023-06-22T01:59:38;101582.91;;;20.26;84.12
57668;BME280;43499;52.366;12.912;2023-06-22T02:00:45;101564.03;;;20.23;83.75
57668;BME280;43499;52.366;12.912;2023-06-22T02:02:02;101583.16;;;20.31;83.80
57668;BME280;43499;52.366;12.912;2023-06-22T02:03:10;101583.91;;;20.28;84.07
57668;BME280;43499;52.366;12.912;2023-06-22T02:04:19;101575.06;;;20.29;83.68
57668;BME280;43499;52.366;12.912;2023-06-22T02:05:24;101579.16;;;20.39;83.07
57668;BME280;43499;52.366;12.912;2023-06-22T02:06:33;101518.25;;;19.99;82.94
57668;BME280;43499;52.366;12.912;2023-06-22T02:07:46;101534.81;;;20.10;83.21
57668;BME280;43499;52.366;12.912;2023-06-22T02:08:54;101522.88;;;20.03;83.02
57668;BME280;43499;52.366;12.912;2023-06-22T02:09:57;101557.63;;;20.19;83.27
57668;BME280;43499;52.366;12.912;2023-06-22T02:11:00;101550.19;;;20.14;83.29
57668;BME280;43499;52.366;12.912;2023-06-22T02:12:22;101533.16;;;20.12;82.75
57668;BME280;43499;52.366;12.912;2023-06-22T02:13:29;101570.81;;;20.33;82.35
57668;BME280;43499;52.366;12.912;2023-06-22T02:14:38;101580.66;;;20.34;82.74
57668;BME280;43499;52.366;12.912;2023-06-22T02:15:45;101515.22;;;19.93;82.88
57668;BME280;43499;52.366;12.912;2023-06-22T02:16:51;101539.66;;;20.00;83.18
57668;BME280;43499;52.366;12.912;2023-06-22T02:17:53;101588.56;;;20.32;82.94
57668;BME280;43499;52.366;12.912;2023-06-22T02:19:03;101553.44;;;20.08;82.96
57668;BME280;43499;52.366;12.912;2023-06-22T02:20:12;101571.63;;;20.15;83.09
57668;BME280;43499;52.366;12.912;2023-06-22T02:21:20;101555.28;;;20.09;83.38
57668;BME280;43499;52.366;12.912;2023-06-22T02:22:28;101532.31;;;19.96;83.07
57668;BME280;43499;52.366;12.912;2023-06-22T02:23:29;101532.22;;;19.95;82.97
57668;BME280;43499;52.366;12.912;2023-06-22T02:24:36;101537.63;;;19.96;82.73
57668;BME280;43499;52.366;12.912;2023-06-22T02:25:38;101537.56;;;19.95;83.19
57668;BME280;43499;52.366;12.912;2023-06-22T02:26:43;101510.91;;;19.80;83.43
57668;BME280;43499;52.366;12.912;2023-06-22T02:27:47;101542.16;;;19.97;83.08
57668;BME280;43499;52.366;12.912;2023-06-22T02:28:48;101542.25;;;19.99;83.51
57668;BME280;43499;52.366;12.912;2023-06-22T02:29:57;101547.00;;;20.04;83.67
57668;BME280;43499;52.366;12.912;2023-06-22T02:31:03;101526.00;;;19.94;83.13
57668;BME280;43499;52.366;12.912;2023-06-22T02:34:02;101541.56;;;20.03;83.27
57668;BME280;43499;52.366;12.912;2023-06-22T02:45:43;101583.81;;;20.27;83.45
57668;BME280;43499;52.366;12.912;2023-06-22T03:03:06;101567.47;;;20.21;84.66
57668;BME280;43499;52.366;12.912;2023-06-22T03:27:23;101587.50;;;20.45;85.93
57668;BME280;43499;52.366;12.912;2023-06-22T03:31:49;101579.75;;;20.50;85.11
57668;BME280;43499;52.366;12.912;2023-06-22T03:34:18;101583.66;;;20.57;84.97
57668;BME280;43499;52.366;12.912;2023-06-22T03:41:42;101590.69;;;20.55;85.15
57668;BME280;43499;52.366;12.912;2023-06-22T03:44:24;101589.69;;;20.69;84.58
57668;BME280;43499;52.366;12.912;2023-06-22T03:46:27;101569.47;;;20.58;84.05
57668;BME280;43499;52.366;12.912;2023-06-22T03:49:00;101594.19;;;20.70;84.55
57668;BME280;43499;52.366;12.912;2023-06-22T03:54:21;101558.78;;;20.74;83.66
57668;BME280;43499;52.366;12.912;2023-06-22T04:05:09;101598.91;;;21.09;83.44
57668;BME280;43499;52.366;12.912;2023-06-22T04:32:57;101635.47;;;21.61;80.98
57668;BME280;43499;52.366;12.912;2023-06-22T04:38:54;101633.88;;;21.48;82.52
57668;BME280;43499;52.366;12.912;2023-06-22T04:51:23;101624.47;;;21.73;81.42
57668;BME280;43499;52.366;12.912;2023-06-22T05:11:10;101634.63;;;22.74;74.13
57668;BME280;43499;52.366;12.912;2023-06-22T05:13:07;101585.97;;;22.45;74.78
57668;BME280;43499;52.366;12.912;2023-06-22T05:14:39;101586.41;;;22.74;74.41
57668;BME280;43499;52.366;12.912;2023-06-22T05:15:45;101584.38;;;22.89;73.57
57668;BME280;43499;52.366;12.912;2023-06-22T05:22:13;101622.94;;;23.75;68.64
57668;BME280;43499;52.366;12.912;2023-06-22T05:23:33;101523.44;;;23.26;68.05
57668;BME280;43499;52.366;12.912;2023-06-22T05:26:59;101570.25;;;23.34;68.54
57668;BME280;43499;52.366;12.912;2023-06-22T05:29:14;101624.13;;;23.39;67.98
57668;BME280;43499;52.366;12.912;2023-06-22T05:30:19;101628.28;;;23.32;68.67
57668;BME280;43499;52.366;12.912;2023-06-22T05:31:33;101630.22;;;23.35;68.60
57668;BME280;43499;52.366;12.912;2023-06-22T05:32:47;101594.75;;;23.01;68.21
57668;BME280;43499;52.366;12.912;2023-06-22T05:34:07;101583.22;;;22.83;69.27
57668;BME280;43499;52.366;12.912;2023-06-22T05:35:57;101561.03;;;22.87;69.73
57668;BME280;43499;52.366;12.912;2023-06-22T05:37:56;101634.31;;;23.26;69.50
57668;BME280;43499;52.366;12.912;2023-06-22T05:40:02;101575.22;;;22.84;68.47
57668;BME280;43499;52.366;12.912;2023-06-22T05:47:58;101559.00;;;22.81;67.40
57668;BME280;43499;52.366;12.912;2023-06-22T05:49:36;101563.13;;;22.73;67.58
57668;BME280;43499;52.366;12.912;2023-06-22T05:51:03;101598.41;;;23.23;67.31
57668;BME280;43499;52.366;12.912;2023-06-22T05:52:22;101601.91;;;23.64;66.09
57668;BME280;43499;52.366;12.912;2023-06-22T05:53:44;101630.56;;;24.08;64.93
57668;BME280;43499;52.366;12.912;2023-06-22T06:01:17;101623.44;;;25.54;59.44
57668;BME280;43499;52.366;12.912;2023-06-22T06:03:13;101563.53;;;25.34;58.34
57668;BME280;43499;52.366;12.912;2023-06-22T06:06:15;101603.41;;;25.71;58.71
57668;BME280;43499;52.366;12.912;2023-06-22T06:08:39;101632.84;;;24.89;59.31
57668;BME280;43499;52.366;12.912;2023-06-22T06:10:11;101639.06;;;24.88;59.75
57668;BME280;43499;52.366;12.912;2023-06-22T06:12:03;101582.97;;;24.28;60.34
57668;BME280;43499;52.366;12.912;2023-06-22T06:16:43;101647.53;;;24.29;58.74
57668;BME280;43499;52.366;12.912;2023-06-22T06:19:18;101650.69;;;23.75;61.11
57668;BME280;43499;52.366;12.912;2023-06-22T06:20:36;101601.34;;;23.50;61.37
57668;BME280;43499;52.366;12.912;2023-06-22T06:22:01;101571.16;;;23.14;61.78
57668;BME280;43499;52.366;12.912;2023-06-22T06:27:27;101646.81;;;23.68;61.72
57668;BME280;43499;52.366;12.912;2023-06-22T06:29:18;101577.41;;;23.34;62.16
57668;BME280;43499;52.366;12.912;2023-06-22T06:30:30;101548.13;;;22.98;60.95
57668;BME280;43499;52.366;12.912;2023-06-22T06:31:46;101581.59;;;23.27;61.82
57668;BME280;43499;52.366;12.912;2023-06-22T06:36:04;101540.84;;;24.49;57.79
57668;BME280;43499;52.366;12.912;2023-06-22T06:37:58;101553.66;;;24.58;56.86
57668;BME280;43499;52.366;12.912;2023-06-22T06:39:25;101589.34;;;25.03;56.44
57668;BME280;43499;52.366;12.912;2023-06-22T06:40:27;101599.69;;;25.16;56.10
57668;BME280;43499;52.366;12.912;2023-06-22T06:42:05;101606.50;;;25.56;54.86
57668;BME280;43499;52.366;12.912;2023-06-22T06:43:16;101591.81;;;25.74;54.69
57668;BME280;43499;52.366;12.912;2023-06-22T06:44:33;101627.59;;;25.70;53.48
57668;BME280;43499;52.366;12.912;2023-06-22T06:45:59;101616.56;;;25.62;54.26
57668;BME280;43499;52.366;12.912;2023-06-22T06:47:51;101530.53;;;25.12;53.59
57668;BME280;43499;52.366;12.912;2023-06-22T06:49:09;101565.22;;;25.30;54.34
57668;BME280;43499;52.366;12.912;2023-06-22T06:52:45;101575.66;;;25.47;52.83
57668;BME280;43499;52.366;12.912;2023-06-22T06:56:12;101517.44;;;25.50;50.91
57668;BME280;43499;52.366;12.912;2023-06-22T06:57:47;101608.84;;;26.29;50.61
57668;BME280;43499;52.366;12.912;2023-06-22T06:59:27;101604.72;;;26.42;50.47
57668;BME280;43499;52.366;12.912;2023-06-22T07:01:14;101562.97;;;25.99;51.02
57668;BME280;43499;52.366;12.912;2023-06-22T07:02:44;101606.38;;;25.81;51.62
57668;BME280;43499;52.366;12.912;2023-06-22T07:04:16;101519.69;;;25.38;51.67
57668;BME280;43499;52.366;12.912;2023-06-22T07:05:41;101593.16;;;25.60;51.89
57668;BME280;43499;52.366;12.912;2023-06-22T07:07:08;101595.06;;;25.64;52.63
57668;BME280;43499;52.366;12.912;2023-06-22T07:10:32;101548.59;;;25.42;52.69
57668;BME280;43499;52.366;12.912;2023-06-22T07:12:00;101594.56;;;25.76;53.00
57668;BME280;43499;52.366;12.912;2023-06-22T07:13:16;101567.88;;;25.56;52.96
57668;BME280;43499;52.366;12.912;2023-06-22T07:16:58;101562.22;;;25.48;53.48
57668;BME280;43499;52.366;12.912;2023-06-22T07:18:20;101564.25;;;25.28;54.14
57668;BME280;43499;52.366;12.912;2023-06-22T07:20:18;101599.88;;;25.47;55.52
57668;BME280;43499;52.366;12.912;2023-06-22T07:22:23;101587.59;;;25.55;55.27
57668;BME280;43499;52.366;12.912;2023-06-22T07:23:41;101564.94;;;25.22;55.92
57668;BME280;43499;52.366;12.912;2023-06-22T07:25:06;101584.50;;;25.17;56.64
57668;BME280;43499;52.366;12.912;2023-06-22T07:26:58;101496.69;;;24.43;57.31
57668;BME280;43499;52.366;12.912;2023-06-22T07:28:09;101512.44;;;24.82;58.01
57668;BME280;43499;52.366;12.912;2023-06-22T07:34:17;101507.06;;;24.58;57.22
57668;BME280;43499;52.366;12.912;2023-06-22T07:35:42;101514.81;;;24.48;57.93
57668;BME280;43499;52.366;12.912;2023-06-22T07:36:57;101571.16;;;24.70;58.42
57668;BME280;43499;52.366;12.912;2023-06-22T07:38:36;101597.63;;;24.83;58.36
57668;BME280;43499;52.366;12.912;2023-06-22T07:39:58;101550.63;;;24.72;57.31
57668;BME280;43499;52.366;12.912;2023-06-22T07:43:17;101504.34;;;24.80;57.91
57668;BME280;43499;52.366;12.912;2023-06-22T07:44:49;101597.75;;;25.38;58.51
57668;BME280;43499;52.366;12.912;2023-06-22T07:46:48;101541.75;;;25.26;58.29
57668;BME280;43499;52.366;12.912;2023-06-22T07:48:07;101536.59;;;25.06;57.60
57668;BME280;43499;52.366;12.912;2023-06-22T07:49:08;101528.19;;;24.97;57.24
57668;BME280;43499;52.366;12.912;2023-06-22T07:50:57;101499.53;;;24.98;56.73
57668;BME280;43499;52.366;12.912;2023-06-22T07:54:35;101601.56;;;25.70;56.30
57668;BME280;43499;52.366;12.912;2023-06-22T07:56:02;101574.44;;;25.64;56.71
57668;BME280;43499;52.366;12.912;2023-06-22T08:08:14;101541.63;;;25.49;54.61
57668;BME280;43499;52.366;12.912;2023-06-22T08:26:14;101493.47;;;26.48;51.37
57668;BME280;43499;52.366;12.912;2023-06-22T08:35:00;101573.97;;;28.07;47.92
57668;BME280;43499;52.366;12.912;2023-06-22T09:13:41;101505.25;;;25.91;47.43
57668;BME280;43499;52.366;12.912;2023-06-22T09:16:00;101524.19;;;26.23;46.35
57668;BME280;43499;52.366;12.912;2023-06-22T09:18:46;101581.81;;;26.58;46.34
57668;BME280;43499;52.366;12.912;2023-06-22T10:04:18;101491.69;;;36.41;29.73
57668;BME280;43499;52.366;12.912;2023-06-22T10:11:21;101466.09;;;35.75;30.75
57668;BME280;43499;52.366;12.912;2023-06-22T10:19:46;101529.16;;;37.55;29.18
57668;BME280;43499;52.366;12.912;2023-06-22T10:45:44;101505.22;;;35.80;31.49
57668;BME280;43499;52.366;12.912;2023-06-22T10:53:29;101500.28;;;33.36;33.55
57668;BME280;43499;52.366;12.912;2023-06-22T11:01:23;101447.69;;;38.47;26.31
57668;BME280;43499;52.366;12.912;2023-06-22T11:06:37;101481.84;;;39.10;25.73
57668;BME280;43499;52.366;12.912;2023-06-22T11:18:17;101460.38;;;35.95;29.41
57668;BME280;43499;52.366;12.912;2023-06-22T11:19:18;101457.97;;;36.36;29.03
57668;BME280;43499;52.366;12.912;2023-06-22T11:20:19;101467.81;;;35.82;28.33
57668;BME280;43499;52.366;12.912;2023-06-22T11:21:20;101468.06;;;34.52;29.82
57668;BME280;43499;52.366;12.912;2023-06-22T11:22:21;101467.78;;;34.95;29.31
57668;BME280;43499;52.366;12.912;2023-06-22T11:23:23;101460.38;;;35.95;28.46
57668;BME280;43499;52.366;12.912;2023-06-22T11:24:24;101468.34;;;36.12;28.36
57668;BME280;43499;52.366;12.912;2023-06-22T11:25:25;101476.69;;;36.05;28.45
57668;BME280;43499;52.366;12.912;2023-06-22T11:26:26;101476.56;;;35.28;29.34
57668;BME280;43499;52.366;12.912;2023-06-22T11:27:30;101481.13;;;35.31;29.49
57668;BME280;43499;52.366;12.912;2023-06-22T11:28:31;101487.38;;;35.41;30.07
57668;BME280;43499;52.366;12.912;2023-06-22T11:29:32;101455.47;;;35.49;28.88
57668;BME280;43499;52.366;12.912;2023-06-22T11:30:33;101480.13;;;35.38;28.85
57668;BME280;43499;52.366;12.912;2023-06-22T11:31:35;101481.22;;;35.20;29.56
57668;BME280;43499;52.366;12.912;2023-06-22T11:32:36;101475.56;;;35.43;29.67
57668;BME280;43499;52.366;12.912;2023-06-22T11:33:37;101473.66;;;35.51;30.17
57668;BME280;43499;52.366;12.912;2023-06-22T11:34:38;101477.06;;;35.69;30.27
57668;BME280;43499;52.366;12.912;2023-06-22T11:35:39;101454.47;;;35.53;29.29
57668;BME280;43499;52.366;12.912;2023-06-22T11:36:40;101472.31;;;34.99;29.57
57668;BME280;43499;52.366;12.912;2023-06-22T11:37:41;101467.31;;;35.46;29.22
57668;BME280;43499;52.366;12.912;2023-06-22T11:38:43;101424.63;;;35.28;28.83
57668;BME280;43499;52.366;12.912;2023-06-22T11:39:44;101476.16;;;36.42;28.10
57668;BME280;43499;52.366;12.912;2023-06-22T11:40:45;101463.81;;;36.75;27.75
57668;BME280;43499;52.366;12.912;2023-06-22T11:41:46;101450.44;;;37.12;26.93
57668;BME280;43499;52.366;12.912;2023-06-22T11:42:47;101475.81;;;36.68;27.66
57668;BME280;43499;52.366;12.912;2023-06-22T11:43:48;101465.94;;;36.56;27.52
57668;BME280;43499;52.366;12.912;2023-06-22T11:44:49;101462.88;;;36.14;27.98
57668;BME280;43499;52.366;12.912;2023-06-22T11:45:50;101453.47;;;36.35;27.95
57668;BME280;43499;52.366;12.912;2023-06-22T11:46:52;101467.25;;;37.43;26.53
57668;BME280;43499;52.366;12.912;2023-06-22T11:47:53;101424.06;;;37.53;26.34
57668;BME280;43499;52.366;12.912;2023-06-22T11:48:54;101457.47;;;38.18;26.65
57668;BME280;43499;52.366;12.912;2023-06-22T11:49:55;101438.38;;;36.67;27.32
57668;BME280;43499;52.366;12.912;2023-06-22T11:50:56;101440.69;;;36.34;27.08
57668;BME280;43499;52.366;12.912;2023-06-22T11:51:57;101461.41;;;36.54;26.47
57668;BME280;43499;52.366;12.912;2023-06-22T11:52:58;101444.41;;;36.30;26.65
57668;BME280;43499;52.366;12.912;2023-06-22T11:54:00;101450.78;;;36.88;25.94
57668;BME280;43499;52.366;12.912;2023-06-22T11:55:01;101445.31;;;37.42;26.35
57668;BME280;43499;52.366;12.912;2023-06-22T11:56:04;101460.19;;;36.73;27.57
57668;BME280;43499;52.366;12.912;2023-06-22T11:57:05;101462.13;;;36.01;27.72
57668;BME280;43499;52.366;12.912;2023-06-22T11:58:06;101442.94;;;35.23;28.68
57668;BME280;43499;52.366;12.912;2023-06-22T11:59:09;101403.78;;;34.03;29.83
57668;BME280;43499;52.366;12.912;2023-06-22T12:00:10;101458.34;;;33.96;29.99
57668;BME280;43499;52.366;12.912;2023-06-22T12:01:18;101443.06;;;33.41;30.66
57668;BME280;43499;52.366;12.912;2023-06-22T12:02:19;101441.91;;;34.09;30.61
57668;BME280;43499;52.366;12.912;2023-06-22T12:03:21;101445.63;;;33.91;30.79
57668;BME280;43499;52.366;12.912;2023-06-22T12:04:22;101458.91;;;34.59;29.55
57668;BME280;43499;52.366;12.912;2023-06-22T12:05:23;101429.84;;;34.55;29.65
57668;BME280;43499;52.366;12.912;2023-06-22T12:06:25;101450.00;;;35.47;29.68
57668;BME280;43499;52.366;12.912;2023-06-22T12:07:26;101440.78;;;36.28;28.15
57668;BME280;43499;52.366;12.912;2023-06-22T12:08:27;101434.25;;;35.68;28.69
57668;BME280;43499;52.366;12.912;2023-06-22T12:09:28;101410.25;;;35.93;29.02
57668;BME280;43499;52.366;12.912;2023-06-22T12:10:29;101440.41;;;36.56;28.33
57668;BME280;43499;52.366;12.912;2023-06-22T12:11:30;101413.44;;;36.83;27.20
57668;BME280;43499;52.366;12.912;2023-06-22T12:12:31;101414.19;;;37.90;25.90
57668;BME280;43499;52.366;12.912;2023-06-22T12:13:32;101434.38;;;38.66;24.21
57668;BME280;43499;52.366;12.912;2023-06-22T12:14:33;101412.09;;;38.78;24.94
57668;BME280;43499;52.366;12.912;2023-06-22T12:15:35;101434.91;;;38.83;24.76
57668;BME280;43499;52.366;12.912;2023-06-22T12:16:36;101433.72;;;37.27;25.89
57668;BME280;43499;52.366;12.912;2023-06-22T12:17:37;101436.03;;;36.41;26.43
57668;BME280;43499;52.366;12.912;2023-06-22T12:18:38;101409.94;;;36.15;27.94
57668;BME280;43499;52.366;12.912;2023-06-22T12:19:39;101404.81;;;35.87;27.42
57668;BME280;43499;52.366;12.912;2023-06-22T12:20:40;101418.97;;;35.50;27.86
57668;BME280;43499;52.366;12.912;2023-06-22T12:21:41;101417.97;;;35.60;27.12
57668;BME280;43499;52.366;12.912;2023-06-22T12:22:46;101426.28;;;36.21;27.74
57668;BME280;43499;52.366;12.912;2023-06-22T12:23:48;101416.59;;;36.59;26.62
57668;BME280;43499;52.366;12.912;2023-06-22T12:24:49;101426.38;;;36.74;26.59
57668;BME280;43499;52.366;12.912;2023-06-22T12:25:50;101408.44;;;37.58;25.53
57668;BME280;43499;52.366;12.912;2023-06-22T12:26:51;101394.34;;;38.55;24.50